createdAt,value
2019-02-27T00:00:27.158Z,16.13
2019-02-27T00:02:57.949Z,16.47
2019-02-27T00:05:28.679Z,20.57
2019-02-27T00:07:59.495Z,16.90
2019-02-27T00:10:30.143Z,20.33
2019-02-27T00:13:03.496Z,18.73
2019-02-27T00:15:37.773Z,17.80
2019-02-27T00:18:06.358Z,17.10
2019-02-27T00:20:37.745Z,17.63
2019-02-27T00:23:08.349Z,17.93
2019-02-27T00:25:39.112Z,17.30
2019-02-27T00:28:09.935Z,16.40
2019-02-27T00:30:40.544Z,15.87
2019-02-27T00:33:11.788Z,17.07
2019-02-27T00:35:42.500Z,20.53
2019-02-27T00:38:13.290Z,17.83
2019-02-27T00:40:43.916Z,17.30
2019-02-27T00:43:14.763Z,20.33
2019-02-27T00:45:45.310Z,17.67
2019-02-27T00:48:16.097Z,18.60
2019-02-27T00:50:46.905Z,17.93
2019-02-27T00:53:17.627Z,15.97
2019-02-27T00:55:48.547Z,18.62
2019-02-27T00:58:19.192Z,20.63
2019-02-27T01:00:50.035Z,20.73
2019-02-27T01:03:20.633Z,20.40
2019-02-27T01:05:51.290Z,17.67
2019-02-27T01:08:22.011Z,20.43
2019-02-27T01:10:52.877Z,18.20
2019-02-27T01:13:23.356Z,22.10
2019-02-27T01:15:54.002Z,20.33
2019-02-27T01:18:24.751Z,18.20
2019-02-27T01:20:55.413Z,27.63
2019-02-27T01:23:26.104Z,19.63
2019-02-27T01:25:57.172Z,20.75
2019-02-27T01:28:27.785Z,22.87
2019-02-27T01:30:58.338Z,17.60
2019-02-27T01:33:28.975Z,19.70
2019-02-27T01:35:59.782Z,17.60
2019-02-27T01:38:30.427Z,17.47
2019-02-27T01:41:00.985Z,25.13
2019-02-27T01:43:32.516Z,21.07
2019-02-27T01:46:04.303Z,21.67
2019-02-27T01:48:35.980Z,15.73
2019-02-27T01:51:07.636Z,21.17
2019-02-27T01:53:40.480Z,18.97
2019-02-27T01:56:11.720Z,19.13
2019-02-27T01:58:44.103Z,18.57
2019-02-27T02:01:15.072Z,24.17
2019-02-27T02:03:47.478Z,18.73
2019-02-27T02:06:18.043Z,20.27
2019-02-27T02:08:48.886Z,19.40
2019-02-27T02:11:19.679Z,14.70
2019-02-27T02:14:24.858Z,16.03
2019-02-27T02:17:56.477Z,17.47
2019-02-27T02:20:51.728Z,14.00
2019-02-27T02:24:24.699Z,17.03
2019-02-27T02:27:41.454Z,15.90
2019-02-27T02:31:14.946Z,19.50
2019-02-27T02:34:30.114Z,16.00
2019-02-27T02:38:24.953Z,19.33
2019-02-27T02:41:13.590Z,19.73
2019-02-27T02:44:41.906Z,22.40
2019-02-27T02:48:05.163Z,21.97
2019-02-27T02:51:39.684Z,16.23
2019-02-27T02:55:15.027Z,18.03
2019-02-27T02:59:00.843Z,16.63
2019-02-27T03:01:55.284Z,19.03
2019-02-27T03:05:16.459Z,20.93
2019-02-27T03:08:45.141Z,19.43
2019-02-27T03:11:54.852Z,21.67
2019-02-27T03:15:28.836Z,19.17
2019-02-27T03:19:08.338Z,18.23
2019-02-27T03:22:41.855Z,18.40
2019-02-27T03:25:52.401Z,21.07
2019-02-27T03:29:00.564Z,19.83
2019-02-27T03:32:12.540Z,20.97
2019-02-27T03:35:48.522Z,16.53
2019-02-27T03:39:15.633Z,16.93
2019-02-27T03:42:49.998Z,21.27
2019-02-27T03:45:51.870Z,19.83
2019-02-27T03:48:51.339Z,18.97
2019-02-27T03:52:36.112Z,16.67
2019-02-27T03:55:48.609Z,17.37
2019-02-27T03:59:05.656Z,18.17
2019-02-27T04:02:13.999Z,18.53
2019-02-27T04:05:29.344Z,19.43
2019-02-27T04:09:03.070Z,19.73
2019-02-27T04:11:33.611Z,16.47
2019-02-27T04:14:24.750Z,19.83
2019-02-27T04:16:55.677Z,21.87
2019-02-27T04:19:26.187Z,19.03
2019-02-27T04:22:00.575Z,17.63
2019-02-27T04:24:29.079Z,18.63
2019-02-27T04:26:59.566Z,20.53
2019-02-27T04:29:30.179Z,22.33
2019-02-27T04:32:00.956Z,20.02
2019-02-27T04:34:33.268Z,18.50
2019-02-27T04:37:03.729Z,22.80
2019-02-27T04:39:35.838Z,18.57
2019-02-27T04:42:06.543Z,26.97
2019-02-27T04:44:38.943Z,22.80
2019-02-27T04:47:09.692Z,20.40
2019-02-27T04:49:40.358Z,20.30
2019-02-27T04:52:11.138Z,18.17
2019-02-27T04:54:42.210Z,18.57
2019-02-27T04:57:12.961Z,20.70
2019-02-27T04:59:43.619Z,23.90
2019-02-27T05:02:14.550Z,23.83
2019-02-27T05:04:45.818Z,20.20
2019-02-27T06:07:20.161Z,19.37
2019-02-27T06:09:50.724Z,18.93
2019-02-27T06:12:21.283Z,18.63
2019-02-27T06:14:54.784Z,21.47
2019-02-27T06:17:24.106Z,17.93
2019-02-27T06:19:54.760Z,23.63
2019-02-27T06:22:27.273Z,20.33
2019-02-27T06:24:57.699Z,17.57
2019-02-27T06:27:28.168Z,20.80
2019-02-27T06:29:59.786Z,23.90
2019-02-27T06:32:30.256Z,22.60
2019-02-27T06:35:00.731Z,30.10
2019-02-27T06:37:31.200Z,25.10
2019-02-27T06:40:01.756Z,18.30
2019-02-27T06:42:32.333Z,23.67
2019-02-27T06:45:02.795Z,23.27
2019-02-27T06:47:35.526Z,28.30
2019-02-27T06:50:06.029Z,24.37
2019-02-27T06:52:36.479Z,21.87
2019-02-27T06:55:07.729Z,24.67
2019-02-27T06:57:40.891Z,21.57
2019-02-27T07:00:19.268Z,24.23
2019-02-27T07:02:49.717Z,19.97
2019-02-27T07:05:20.235Z,23.77
2019-02-27T07:07:50.696Z,21.60
2019-02-27T07:10:21.163Z,19.37
2019-02-27T07:12:54.349Z,19.33
2019-02-27T07:15:27.550Z,23.67
2019-02-27T07:17:58.096Z,25.50
2019-02-27T07:20:28.552Z,26.27
2019-02-27T07:22:59.029Z,24.70
2019-02-27T07:25:29.534Z,21.50
2019-02-27T07:28:00.009Z,22.97
2019-02-27T07:30:30.492Z,23.23
2019-02-27T07:33:03.755Z,24.03
2019-02-27T07:35:33.260Z,23.10
2019-02-27T07:38:03.805Z,23.93
2019-02-27T07:40:35.432Z,23.23
2019-02-27T07:43:06.404Z,24.73
2019-02-27T07:45:37.007Z,26.70
2019-02-27T07:48:07.437Z,27.93
2019-02-27T07:50:37.948Z,25.30
2019-02-27T07:53:08.403Z,25.03
2019-02-27T07:55:38.926Z,24.93
2019-02-27T07:58:09.426Z,27.17
2019-02-27T08:00:39.912Z,28.07
2019-02-27T08:03:13.021Z,30.80
2019-02-27T08:05:42.622Z,26.90
2019-02-27T08:08:13.086Z,29.03
2019-02-27T08:10:45.210Z,26.33
2019-02-27T08:13:15.780Z,28.23
2019-02-27T08:15:46.233Z,24.27
2019-02-27T08:18:16.846Z,24.90
2019-02-27T08:20:48.121Z,25.57
2019-02-27T08:23:18.605Z,26.13
2019-02-27T08:25:49.031Z,23.70
2019-02-27T08:28:19.501Z,26.23
2019-02-27T08:30:49.934Z,29.30
2019-02-27T08:33:20.456Z,24.83
2019-02-27T08:35:50.853Z,27.70
2019-02-27T08:38:23.520Z,25.67
2019-02-27T08:40:57.528Z,20.33
2019-02-27T08:43:25.878Z,26.53
2019-02-27T08:45:56.318Z,21.53
2019-02-27T08:48:26.801Z,22.33
2019-02-27T08:50:57.228Z,21.30
2019-02-27T08:53:27.776Z,23.40
2019-02-27T08:55:58.216Z,20.37
2019-02-27T08:58:29.723Z,18.23
2019-02-27T09:01:01.631Z,21.37
2019-02-27T09:03:36.155Z,23.83
2019-02-27T09:06:04.225Z,19.37
2019-02-27T09:08:34.709Z,17.80
2019-02-27T09:11:06.654Z,21.23
2019-02-27T09:13:37.306Z,19.53
2019-02-27T09:16:07.728Z,14.97
2019-02-27T09:18:38.359Z,14.83
2019-02-27T09:21:08.841Z,18.17
2019-02-27T09:23:39.255Z,15.50
2019-02-27T09:26:09.855Z,16.40
2019-02-27T09:28:44.207Z,14.30
2019-02-27T09:31:12.474Z,16.97
2019-02-27T09:33:42.921Z,15.37
2019-02-27T09:36:13.558Z,15.47
2019-02-27T09:38:45.201Z,16.80
2019-02-27T09:41:15.719Z,15.87
2019-02-27T09:43:46.194Z,15.97
2019-02-27T09:46:19.315Z,14.30
2019-02-27T09:48:48.814Z,17.03
2019-02-27T09:51:22.197Z,14.43
2019-02-27T09:53:51.468Z,14.83
2019-02-27T09:56:22.008Z,13.80
2019-02-27T09:58:52.402Z,15.80
2019-02-27T10:01:22.872Z,15.73
2019-02-27T10:03:55.254Z,15.37
2019-02-27T10:06:25.598Z,13.67
2019-02-27T10:08:56.454Z,17.73
2019-02-27T10:11:28.315Z,13.70
2019-02-27T10:13:58.865Z,16.00
2019-02-27T10:16:29.354Z,12.77
2019-02-27T10:18:59.810Z,13.20
2019-02-27T10:21:30.288Z,12.40
2019-02-27T10:24:04.397Z,12.43
2019-02-27T10:26:32.955Z,14.23
2019-02-27T10:29:03.456Z,15.43
2019-02-27T10:31:33.943Z,14.60
2019-02-27T10:34:04.402Z,11.27
2019-02-27T10:36:38.218Z,15.67
2019-02-27T10:39:08.277Z,15.83
2019-02-27T10:41:38.739Z,12.93
2019-02-27T10:44:09.304Z,11.93
2019-02-27T10:46:42.840Z,15.27
2019-02-27T10:49:13.307Z,12.20
2019-02-27T10:51:44.419Z,13.20
2019-02-27T10:54:15.022Z,16.17
2019-02-27T10:56:45.498Z,13.67
2019-02-27T10:59:15.959Z,14.47
2019-02-27T11:01:46.504Z,16.63
2019-02-27T11:04:16.937Z,13.10
2019-02-27T11:06:47.461Z,16.10
2019-02-27T11:09:30.888Z,16.30
2019-02-27T11:12:01.374Z,14.47
2019-02-27T11:14:32.694Z,14.97
2019-02-27T11:17:03.469Z,14.47
2019-02-27T11:19:34.882Z,13.40
2019-02-27T11:22:05.522Z,16.37
2019-02-27T11:24:35.978Z,14.33
2019-02-27T11:27:06.884Z,13.57
2019-02-27T11:29:37.412Z,13.23
2019-02-27T11:32:07.985Z,14.23
2019-02-27T11:34:38.471Z,13.20
2019-02-27T11:37:12.720Z,14.10
2019-02-27T11:39:41.200Z,12.43
2019-02-27T11:42:11.790Z,13.67
2019-02-27T11:44:42.340Z,12.03
2019-02-27T11:47:12.792Z,10.67
2019-02-27T11:49:43.345Z,12.73
2019-02-27T11:52:13.922Z,12.63
2019-02-27T11:54:44.374Z,9.93
2019-02-27T11:57:14.818Z,11.20
2019-02-27T11:59:46.895Z,17.40
2019-02-27T12:02:17.489Z,10.73
2019-02-27T12:04:47.939Z,15.50
2019-02-27T12:07:18.431Z,11.87
2019-02-27T12:09:48.927Z,12.23
2019-02-27T12:12:22.469Z,12.97
2019-02-27T12:14:51.618Z,12.50
2019-02-27T12:17:23.284Z,14.07
2019-02-27T12:19:55.123Z,12.67
2019-02-27T12:22:25.811Z,14.63
2019-02-27T12:24:58.240Z,10.83
2019-02-27T12:27:47.744Z,10.77
2019-02-27T12:30:02.839Z,10.80
2019-02-27T12:32:33.164Z,9.60
2019-02-27T12:35:03.630Z,12.57
2019-02-27T12:37:34.888Z,12.17
2019-02-27T12:40:06.364Z,13.97
2019-02-27T12:42:37.618Z,12.73
2019-02-27T12:45:13.425Z,9.47
2019-02-27T12:47:44.019Z,10.97
2019-02-27T12:50:17.128Z,10.90
2019-02-27T12:52:48.231Z,11.25
2019-02-27T12:55:20.428Z,11.83
2019-02-27T12:57:52.340Z,10.72
2019-02-27T13:00:27.233Z,11.33
2019-02-27T13:02:58.940Z,14.13
2019-02-27T13:05:29.958Z,11.33
2019-02-27T13:08:00.502Z,9.67
2019-02-27T13:10:34.027Z,9.80
2019-02-27T13:13:03.258Z,8.93
2019-02-27T13:15:33.721Z,7.50
2019-02-27T13:18:04.344Z,7.30
2019-02-27T13:20:34.892Z,12.03
2019-02-27T13:23:05.651Z,10.10
2019-02-27T13:25:36.172Z,9.30
2019-02-27T13:28:06.803Z,10.17
2019-02-27T13:30:41.334Z,10.60
2019-02-27T13:33:09.609Z,8.33
2019-02-27T13:35:41.202Z,9.03
2019-02-27T13:38:17.469Z,8.17
2019-02-27T13:40:44.915Z,6.47
2019-02-27T13:43:15.454Z,6.83
2019-02-27T13:45:47.595Z,7.07
2019-02-27T13:48:37.329Z,11.00
2019-02-27T13:51:03.923Z,7.73
2019-02-27T13:53:34.420Z,6.90
2019-02-27T13:56:04.906Z,7.13
2019-02-27T13:58:36.509Z,7.43
2019-02-27T14:01:11.989Z,8.50
2019-02-27T14:03:41.863Z,7.53
2019-02-27T14:06:12.541Z,8.00
2019-02-27T14:08:43.867Z,7.30
2019-02-27T14:11:14.617Z,7.77
2019-02-27T14:13:45.173Z,9.77
2019-02-27T14:16:15.707Z,21.97
2019-02-27T14:18:49.770Z,11.47
2019-02-27T14:21:18.385Z,8.40
2019-02-27T14:23:48.852Z,8.10
2019-02-27T14:26:19.305Z,8.73
2019-02-27T14:28:52.157Z,8.77
2019-02-27T14:31:22.064Z,8.87
2019-02-27T14:33:54.239Z,10.97
2019-02-27T14:36:24.844Z,8.97
2019-02-27T14:38:56.627Z,8.60
2019-02-27T14:41:27.292Z,7.97
2019-02-27T14:43:58.611Z,11.97
2019-02-27T14:46:29.099Z,13.10
2019-02-27T14:48:59.566Z,7.83
2019-02-27T14:51:30.026Z,8.97
2019-02-27T14:54:00.506Z,11.37
2019-02-27T14:56:31.059Z,7.67
2019-02-27T14:59:01.525Z,8.77
2019-02-27T15:01:31.978Z,8.87
2019-02-27T15:04:02.500Z,9.47
2019-02-27T15:06:32.957Z,8.70
2019-02-27T15:09:06.291Z,9.93
2019-02-27T15:11:36.884Z,9.67
2019-02-27T15:14:07.540Z,8.57
2019-02-27T15:16:38.062Z,10.87
2019-02-27T15:19:08.521Z,9.03
2019-02-27T15:21:38.989Z,8.93
2019-02-27T15:24:10.520Z,8.57
2019-02-27T15:26:45.184Z,9.17
2019-02-27T15:29:13.373Z,10.47
2019-02-27T15:31:43.842Z,9.53
2019-02-27T15:34:14.317Z,8.63
2019-02-27T15:36:44.999Z,10.33
2019-02-27T15:39:20.207Z,9.53
2019-02-27T15:41:47.685Z,10.50
2019-02-27T15:44:18.185Z,10.90
2019-02-27T15:46:48.636Z,8.77
2019-02-27T15:49:19.141Z,8.53
2019-02-27T15:51:49.597Z,12.40
2019-02-27T15:54:23.972Z,6.30
2019-02-27T15:56:52.648Z,7.90
2019-02-27T15:59:23.171Z,9.20
2019-02-27T16:01:53.789Z,8.57
2019-02-27T16:04:24.313Z,9.97
2019-02-27T16:06:54.987Z,12.97
2019-02-27T16:09:26.092Z,11.33
2019-02-27T16:11:56.680Z,9.23
2019-02-27T16:14:27.200Z,14.00
2019-02-27T16:16:58.299Z,12.10
2019-02-27T16:19:28.848Z,12.57
2019-02-27T16:21:59.351Z,14.37
2019-02-27T16:24:29.810Z,12.53
2019-02-27T16:27:02.641Z,11.57
2019-02-27T16:29:33.135Z,13.27
2019-02-27T16:32:03.713Z,10.30
2019-02-27T16:34:34.362Z,13.47
2019-02-27T16:37:04.957Z,13.73
2019-02-27T16:39:41.746Z,11.87
2019-02-27T16:42:11.789Z,13.50
2019-02-27T16:44:42.558Z,14.77
2019-02-27T16:47:15.488Z,16.87
2019-02-27T16:49:47.210Z,14.40
2019-02-27T16:52:28.608Z,16.37
2019-02-27T16:55:02.591Z,17.43
2019-02-27T16:57:33.074Z,11.70
2019-02-27T17:00:03.524Z,12.03
2019-02-27T17:02:35.492Z,12.97
2019-02-27T17:05:08.866Z,12.03
2019-02-27T17:07:38.935Z,18.73
2019-02-27T17:10:14.924Z,14.20
2019-02-27T17:12:46.220Z,13.27
2019-02-27T17:15:16.739Z,11.77
2019-02-27T17:17:47.243Z,12.27
2019-02-27T17:20:18.782Z,16.70
2019-02-27T17:22:49.231Z,20.40
2019-02-27T17:25:19.750Z,15.20
2019-02-27T17:27:51.866Z,14.00
2019-02-27T17:30:25.540Z,14.47
2019-02-27T17:32:56.086Z,15.30
2019-02-27T17:35:26.707Z,11.80
2019-02-27T17:37:58.344Z,14.33
2019-02-27T17:40:29.335Z,13.15
2019-02-27T17:43:00.373Z,17.17
2019-02-27T17:45:31.130Z,11.93
2019-02-27T17:48:01.617Z,12.40
2019-02-27T17:50:32.419Z,12.50
2019-02-27T17:53:03.195Z,11.53
2019-02-27T17:55:33.874Z,17.37
2019-02-27T17:58:04.321Z,14.67
2019-02-27T18:00:39.801Z,12.33
2019-02-27T18:03:10.302Z,13.63
2019-02-27T18:05:40.841Z,14.63
2019-02-27T18:08:15.836Z,15.20
2019-02-27T18:10:43.459Z,12.57
2019-02-27T18:13:13.942Z,13.83
2019-02-27T18:15:44.441Z,11.80
2019-02-27T18:18:14.929Z,13.53
2019-02-27T18:20:45.443Z,14.30
2019-02-27T18:23:15.949Z,12.40
2019-02-27T18:25:47.414Z,10.67
2019-02-27T18:28:17.898Z,13.83
2019-02-27T18:30:52.892Z,9.27
2019-02-27T18:33:20.548Z,12.33
2019-02-27T18:35:51.041Z,8.80
2019-02-27T18:38:21.533Z,12.90
2019-02-27T18:40:52.104Z,12.50
2019-02-27T18:43:22.591Z,11.63
2019-02-27T18:45:53.090Z,11.03
2019-02-27T18:48:25.895Z,10.80
2019-02-27T18:50:58.658Z,10.20
2019-02-27T18:53:28.762Z,14.47
2019-02-27T18:56:02.027Z,12.97
2019-02-27T18:58:31.558Z,9.37
2019-02-27T19:01:02.058Z,13.80
2019-02-27T19:03:32.611Z,14.33
2019-02-27T19:06:03.047Z,12.53
2019-02-27T19:08:33.520Z,12.27
2019-02-27T19:11:03.988Z,12.47
2019-02-27T19:13:34.460Z,11.53
2019-02-27T19:16:04.974Z,11.17
2019-02-27T19:18:35.769Z,13.40
2019-02-27T19:21:06.391Z,11.67
2019-02-27T19:23:36.872Z,12.03
2019-02-27T19:26:09.415Z,17.10
2019-02-27T19:28:39.648Z,16.17
2019-02-27T19:31:10.119Z,16.90
2019-02-27T19:33:40.597Z,15.20
2019-02-27T19:36:18.886Z,21.23
2019-02-27T19:38:44.215Z,21.23
2019-02-27T19:41:15.503Z,16.67
2019-02-27T19:43:45.962Z,14.20
2019-02-27T19:46:16.447Z,18.53
2019-02-27T19:48:47.436Z,20.07
2019-02-27T19:51:20.202Z,15.10
2019-02-27T19:53:50.128Z,12.63
2019-02-27T19:56:20.673Z,13.97
2019-02-27T19:58:52.188Z,13.77
2019-02-27T20:01:22.782Z,14.20
2019-02-27T20:03:53.299Z,14.53
2019-02-27T20:06:24.622Z,18.53
2019-02-27T20:08:56.192Z,17.47
2019-02-27T20:11:26.835Z,15.23
2019-02-27T20:14:02.124Z,16.30
2019-02-27T20:16:30.867Z,21.90
2019-02-27T20:19:01.457Z,15.73
2019-02-27T20:21:31.925Z,20.70
2019-02-27T20:24:02.568Z,13.83
2019-02-27T20:26:33.010Z,12.87
2019-02-27T20:29:04.427Z,17.23
2019-02-27T20:31:35.807Z,13.73
2019-02-27T20:34:10.651Z,15.47
2019-02-27T20:36:38.643Z,14.50
2019-02-27T20:39:10.305Z,15.20
2019-02-27T20:41:43.855Z,14.17
2019-02-27T20:44:12.953Z,14.63
2019-02-27T20:46:46.461Z,11.53
2019-02-27T20:49:17.809Z,11.13
2019-02-27T20:51:48.281Z,11.80
2019-02-27T20:54:18.767Z,13.13
2019-02-27T20:56:55.520Z,14.37
2019-02-27T20:59:24.600Z,15.40
2019-02-27T21:01:53.787Z,12.60
2019-02-27T21:04:24.293Z,12.17
2019-02-27T21:06:54.914Z,13.97
2019-02-27T21:09:25.478Z,14.83
2019-02-27T21:11:55.994Z,13.47
2019-02-27T21:14:27.444Z,12.33
2019-02-27T21:16:58.053Z,13.53
2019-02-27T21:19:28.510Z,15.43
2019-02-27T21:21:58.999Z,12.40
2019-02-27T21:24:29.455Z,13.00
2019-02-27T21:27:00.020Z,16.23
2019-02-27T21:29:30.456Z,13.63
2019-02-27T21:32:01.500Z,15.70
2019-02-27T21:34:32.769Z,14.17
2019-02-27T21:37:03.252Z,10.80
2019-02-27T21:39:33.713Z,13.83
2019-02-27T21:42:04.276Z,14.83
2019-02-27T21:44:34.747Z,19.40
2019-02-27T21:47:05.227Z,13.43
2019-02-27T21:49:35.689Z,13.70
2019-02-27T21:52:06.252Z,15.97
2019-02-27T21:54:39.324Z,16.43
2019-02-27T21:57:08.894Z,16.23
2019-02-27T21:59:39.776Z,16.60
2019-02-27T22:02:10.977Z,14.57
2019-02-27T22:04:44.127Z,16.57
2019-02-27T22:07:13.677Z,14.27
2019-02-27T22:09:44.894Z,17.70
2019-02-27T22:12:15.964Z,15.33
2019-02-27T22:14:48.602Z,19.33
2019-02-27T22:17:18.655Z,19.80
2019-02-27T22:19:50.450Z,16.97
2019-02-27T22:22:21.331Z,16.40
2019-02-27T22:24:52.238Z,16.20
2019-02-27T22:27:24.100Z,20.63
2019-02-27T22:29:55.901Z,16.37
2019-02-27T22:32:26.408Z,21.60
2019-02-27T22:34:59.167Z,18.77
2019-02-27T22:37:29.131Z,21.30
2019-02-27T22:39:59.670Z,16.90
2019-02-27T22:42:30.157Z,22.57
2019-02-27T22:45:04.166Z,20.93
2019-02-27T22:47:32.787Z,21.63
2019-02-27T22:50:06.247Z,19.53
2019-02-27T22:52:35.472Z,19.93
2019-02-27T22:55:07.351Z,21.60
2019-02-27T22:57:38.483Z,23.13
2019-02-27T23:01:04.950Z,17.13
2019-02-27T23:04:05.253Z,27.03
2019-02-27T23:06:35.809Z,20.47
2019-02-27T23:09:12.224Z,24.47
2019-02-27T23:11:43.363Z,24.77
2019-02-27T23:14:14.017Z,21.47
2019-02-27T23:16:44.450Z,22.40
2019-02-27T23:19:14.979Z,30.17
2019-02-27T23:21:45.449Z,26.50
2019-02-27T23:24:15.932Z,29.83
2019-02-27T23:26:46.438Z,31.47
2019-02-27T23:29:16.874Z,26.90
2019-02-27T23:31:47.320Z,28.93
2019-02-27T23:34:17.795Z,22.70
2019-02-27T23:36:48.253Z,26.37
2019-02-27T23:39:18.895Z,28.20
2019-02-27T23:41:49.365Z,27.33
2019-02-27T23:44:19.795Z,26.90
2019-02-27T23:46:54.453Z,27.43
2019-02-27T23:49:22.471Z,25.27
2019-02-27T23:51:52.914Z,24.33
2019-02-27T23:54:23.553Z,28.07
2019-02-27T23:56:53.997Z,24.53
2019-02-27T23:59:24.439Z,24.33
